CYQK

Kenora Airport

Kenora, Ontario, Canada
METAR CYQK 250500Z 16008KT 15SM FEW045CB BKN140 20/18 A2968 RMK CB2AC3 SLP050 DENSITY ALT 2600FT
Observed Flight Rules
May-25 @ 05:00 UTC (20 minutes ago) Visual Flight Rules
Wind Visibility Clouds
160° at 8 knots 15 miles
  • Few at 4,500' AGL
  • Broken at 14,000' AGL
Temperatures Readings
Current 20°C / 68°F
Dewpoint 18°C / 64°F
Humidity 88%
Altimeter 29.68" Hg
Pressure 1005 hPa
Elevation 411
METAR CYQK 250500Z 16008KT 15SM FEW045CB BKN140 20/18 A2968 RMK CB2AC3 SLP050 DENSITY ALT 2600FT
Observed Flight Rules
May-25 @ 05:00 UTC
(20 minutes ago)
VFR
Wind Visibility
160° at 8 knots 15 miles
Clouds
  • Few at 4,500' AGL
  • Broken at 14,000' AGL
Temperature Dewpoint
20°C / 68°F 18°C / 64°F
Humidity Altimeter Pressure
88% 29.68" Hg 1005 hPa